sensor_id;sensor_type;location;lat;lon;timestamp;temperature;humidity
23323;DHT22;11833;52.554;13.554;2023-07-16T00:01:04;25.30;93.70
23323;DHT22;11833;52.554;13.554;2023-07-16T00:03:30;25.20;94.30
23323;DHT22;11833;52.554;13.554;2023-07-16T00:05:56;25.00;95.60
23323;DHT22;11833;52.554;13.554;2023-07-16T00:08:22;24.80;96.10
23323;DHT22;11833;52.554;13.554;2023-07-16T00:10:48;24.90;96.80
23323;DHT22;11833;52.554;13.554;2023-07-16T00:13:13;24.90;97.20
23323;DHT22;11833;52.554;13.554;2023-07-16T00:15:39;24.80;97.80
23323;DHT22;11833;52.554;13.554;2023-07-16T00:18:05;24.60;99.20
23323;DHT22;11833;52.554;13.554;2023-07-16T00:20:31;24.60;99.90
23323;DHT22;11833;52.554;13.554;2023-07-16T00:22:58;24.60;99.90
23323;DHT22;11833;52.554;13.554;2023-07-16T00:25:23;24.50;99.90
23323;DHT22;11833;52.554;13.554;2023-07-16T00:27:49;24.50;99.90
23323;DHT22;11833;52.554;13.554;2023-07-16T00:30:15;24.50;99.90
23323;DHT22;11833;52.554;13.554;2023-07-16T00:32:40;24.40;99.90
23323;DHT22;11833;52.554;13.554;2023-07-16T00:35:06;24.40;99.90
23323;DHT22;11833;52.554;13.554;2023-07-16T00:37:34;24.50;99.90
23323;DHT22;11833;52.554;13.554;2023-07-16T00:40:00;24.40;99.90
23323;DHT22;11833;52.554;13.554;2023-07-16T00:42:26;24.30;99.90
23323;DHT22;11833;52.554;13.554;2023-07-16T00:44:52;24.30;99.90
23323;DHT22;11833;52.554;13.554;2023-07-16T00:47:17;24.50;99.90
23323;DHT22;11833;52.554;13.554;2023-07-16T00:49:44;24.50;99.90
23323;DHT22;11833;52.554;13.554;2023-07-16T00:52:16;24.30;99.90
23323;DHT22;11833;52.554;13.554;2023-07-16T00:54:43;24.20;99.90
23323;DHT22;11833;52.554;13.554;2023-07-16T00:57:09;24.20;99.90
23323;DHT22;11833;52.554;13.554;2023-07-16T00:59:35;24.30;99.90
23323;DHT22;11833;52.554;13.554;2023-07-16T01:02:01;24.40;99.90
23323;DHT22;11833;52.554;13.554;2023-07-16T01:04:26;24.40;99.90
23323;DHT22;11833;52.554;13.554;2023-07-16T01:06:55;24.30;99.90
23323;DHT22;11833;52.554;13.554;2023-07-16T01:09:24;24.30;99.90
23323;DHT22;11833;52.554;13.554;2023-07-16T01:11:51;24.10;99.90
23323;DHT22;11833;52.554;13.554;2023-07-16T01:14:19;24.00;99.90
23323;DHT22;11833;52.554;13.554;2023-07-16T01:16:45;23.60;99.90
23323;DHT22;11833;52.554;13.554;2023-07-16T01:19:10;23.60;99.90
23323;DHT22;11833;52.554;13.554;2023-07-16T01:21:52;23.60;99.90
23323;DHT22;11833;52.554;13.554;2023-07-16T01:24:31;23.60;99.90
23323;DHT22;11833;52.554;13.554;2023-07-16T01:27:42;23.60;99.90
23323;DHT22;11833;52.554;13.554;2023-07-16T01:30:24;23.60;99.90
23323;DHT22;11833;52.554;13.554;2023-07-16T01:32:52;23.10;99.90
23323;DHT22;11833;52.554;13.554;2023-07-16T01:35:19;22.80;99.90
23323;DHT22;11833;52.554;13.554;2023-07-16T01:37:45;22.80;99.90
23323;DHT22;11833;52.554;13.554;2023-07-16T01:40:11;22.70;99.90
23323;DHT22;11833;52.554;13.554;2023-07-16T01:42:37;22.60;99.90
23323;DHT22;11833;52.554;13.554;2023-07-16T01:45:03;22.50;99.90
23323;DHT22;11833;52.554;13.554;2023-07-16T01:50:13;22.40;99.90
23323;DHT22;11833;52.554;13.554;2023-07-16T01:52:39;22.40;99.90
23323;DHT22;11833;52.554;13.554;2023-07-16T01:55:05;22.40;99.90
23323;DHT22;11833;52.554;13.554;2023-07-16T01:57:31;22.60;99.90
23323;DHT22;11833;52.554;13.554;2023-07-16T01:59:57;22.70;99.90
23323;DHT22;11833;52.554;13.554;2023-07-16T02:02:23;22.60;99.90
23323;DHT22;11833;52.554;13.554;2023-07-16T02:04:49;22.70;99.90
23323;DHT22;11833;52.554;13.554;2023-07-16T02:07:14;22.60;99.90
23323;DHT22;11833;52.554;13.554;2023-07-16T02:09:40;22.60;99.90
23323;DHT22;11833;52.554;13.554;2023-07-16T02:12:06;22.70;99.90
23323;DHT22;11833;52.554;13.554;2023-07-16T02:14:32;22.60;99.90
23323;DHT22;11833;52.554;13.554;2023-07-16T02:16:58;22.50;99.90
23323;DHT22;11833;52.554;13.554;2023-07-16T02:19:23;22.90;99.90
23323;DHT22;11833;52.554;13.554;2023-07-16T02:21:51;23.00;99.90
23323;DHT22;11833;52.554;13.554;2023-07-16T02:24:16;22.90;99.90
23323;DHT22;11833;52.554;13.554;2023-07-16T02:26:42;22.80;99.90
23323;DHT22;11833;52.554;13.554;2023-07-16T02:29:08;22.70;99.90
23323;DHT22;11833;52.554;13.554;2023-07-16T02:31:34;22.50;99.90
23323;DHT22;11833;52.554;13.554;2023-07-16T02:34:01;22.30;99.90
23323;DHT22;11833;52.554;13.554;2023-07-16T02:36:27;22.10;99.90
23323;DHT22;11833;52.554;13.554;2023-07-16T02:38:52;22.00;99.90
23323;DHT22;11833;52.554;13.554;2023-07-16T02:41:18;21.90;99.90
23323;DHT22;11833;52.554;13.554;2023-07-16T02:43:45;21.80;99.90
23323;DHT22;11833;52.554;13.554;2023-07-16T02:46:12;21.70;99.90
23323;DHT22;11833;52.554;13.554;2023-07-16T02:48:37;21.60;99.90
23323;DHT22;11833;52.554;13.554;2023-07-16T02:51:03;21.30;99.90
23323;DHT22;11833;52.554;13.554;2023-07-16T02:53:29;21.20;99.90
23323;DHT22;11833;52.554;13.554;2023-07-16T02:55:54;21.10;99.90
23323;DHT22;11833;52.554;13.554;2023-07-16T02:58:20;21.00;99.90
23323;DHT22;11833;52.554;13.554;2023-07-16T03:00:46;21.10;99.90
23323;DHT22;11833;52.554;13.554;2023-07-16T03:03:12;20.90;99.90
23323;DHT22;11833;52.554;13.554;2023-07-16T03:05:37;21.00;99.90
23323;DHT22;11833;52.554;13.554;2023-07-16T03:08:04;20.80;99.90
23323;DHT22;11833;52.554;13.554;2023-07-16T03:10:29;21.00;99.90
23323;DHT22;11833;52.554;13.554;2023-07-16T03:12:55;20.90;99.90
23323;DHT22;11833;52.554;13.554;2023-07-16T03:15:21;20.90;99.90
23323;DHT22;11833;52.554;13.554;2023-07-16T03:17:47;20.80;99.90
23323;DHT22;11833;52.554;13.554;2023-07-16T03:20:12;20.70;99.90
23323;DHT22;11833;52.554;13.554;2023-07-16T03:22:38;20.70;99.90
23323;DHT22;11833;52.554;13.554;2023-07-16T03:25:04;20.80;99.90
23323;DHT22;11833;52.554;13.554;2023-07-16T03:27:31;21.00;99.90
23323;DHT22;11833;52.554;13.554;2023-07-16T03:29:56;21.10;99.90
23323;DHT22;11833;52.554;13.554;2023-07-16T03:32:23;21.10;99.90
23323;DHT22;11833;52.554;13.554;2023-07-16T03:34:48;21.20;99.90
23323;DHT22;11833;52.554;13.554;2023-07-16T03:37:14;21.20;99.90
23323;DHT22;11833;52.554;13.554;2023-07-16T03:39:40;21.20;99.90
23323;DHT22;11833;52.554;13.554;2023-07-16T03:42:05;21.10;99.90
23323;DHT22;11833;52.554;13.554;2023-07-16T03:44:31;21.20;99.90
23323;DHT22;11833;52.554;13.554;2023-07-16T03:46:57;21.30;99.90
23323;DHT22;11833;52.554;13.554;2023-07-16T03:49:23;21.40;99.90
23323;DHT22;11833;52.554;13.554;2023-07-16T03:51:48;21.30;99.90
23323;DHT22;11833;52.554;13.554;2023-07-16T03:54:14;21.70;99.90
23323;DHT22;11833;52.554;13.554;2023-07-16T03:56:40;21.50;99.90
23323;DHT22;11833;52.554;13.554;2023-07-16T03:59:05;21.60;99.90
23323;DHT22;11833;52.554;13.554;2023-07-16T04:01:31;21.40;99.90
23323;DHT22;11833;52.554;13.554;2023-07-16T04:03:57;21.40;99.90
23323;DHT22;11833;52.554;13.554;2023-07-16T04:06:22;21.40;99.90
23323;DHT22;11833;52.554;13.554;2023-07-16T04:08:48;21.30;99.90
23323;DHT22;11833;52.554;13.554;2023-07-16T04:11:14;21.10;99.90
23323;DHT22;11833;52.554;13.554;2023-07-16T04:13:40;21.20;99.90
23323;DHT22;11833;52.554;13.554;2023-07-16T04:16:05;21.30;99.90
23323;DHT22;11833;52.554;13.554;2023-07-16T04:18:31;21.20;99.90
23323;DHT22;11833;52.554;13.554;2023-07-16T04:20:57;21.20;99.90
23323;DHT22;11833;52.554;13.554;2023-07-16T04:23:22;21.20;99.90
23323;DHT22;11833;52.554;13.554;2023-07-16T04:25:52;21.20;99.90
23323;DHT22;11833;52.554;13.554;2023-07-16T04:28:19;21.30;99.90
23323;DHT22;11833;52.554;13.554;2023-07-16T04:30:44;21.20;99.90
23323;DHT22;11833;52.554;13.554;2023-07-16T04:33:10;21.10;99.90
23323;DHT22;11833;52.554;13.554;2023-07-16T04:35:36;21.30;99.90
23323;DHT22;11833;52.554;13.554;2023-07-16T04:38:02;21.20;99.90
23323;DHT22;11833;52.554;13.554;2023-07-16T04:40:29;21.20;99.90
23323;DHT22;11833;52.554;13.554;2023-07-16T04:42:55;21.30;99.90
23323;DHT22;11833;52.554;13.554;2023-07-16T04:45:21;21.50;99.90
23323;DHT22;11833;52.554;13.554;2023-07-16T04:47:47;21.80;99.90
23323;DHT22;11833;52.554;13.554;2023-07-16T04:50:13;21.80;99.90
23323;DHT22;11833;52.554;13.554;2023-07-16T04:52:39;21.80;99.90
23323;DHT22;11833;52.554;13.554;2023-07-16T04:55:05;21.90;99.90
23323;DHT22;11833;52.554;13.554;2023-07-16T04:57:32;21.90;99.90
23323;DHT22;11833;52.554;13.554;2023-07-16T04:59:59;21.80;99.90
23323;DHT22;11833;52.554;13.554;2023-07-16T05:02:24;21.60;99.90
23323;DHT22;11833;52.554;13.554;2023-07-16T05:04:50;21.60;99.90
23323;DHT22;11833;52.554;13.554;2023-07-16T05:07:16;21.60;99.90
23323;DHT22;11833;52.554;13.554;2023-07-16T05:09:42;21.60;99.90
23323;DHT22;11833;52.554;13.554;2023-07-16T05:12:08;21.80;99.90
23323;DHT22;11833;52.554;13.554;2023-07-16T05:14:47;21.80;99.90
23323;DHT22;11833;52.554;13.554;2023-07-16T05:17:14;21.60;99.90
23323;DHT22;11833;52.554;13.554;2023-07-16T05:19:40;21.60;99.90
23323;DHT22;11833;52.554;13.554;2023-07-16T05:22:06;21.60;99.90
23323;DHT22;11833;52.554;13.554;2023-07-16T05:24:32;21.60;99.90
23323;DHT22;11833;52.554;13.554;2023-07-16T05:26:58;21.50;99.90
23323;DHT22;11833;52.554;13.554;2023-07-16T05:29:24;21.60;99.90
23323;DHT22;11833;52.554;13.554;2023-07-16T05:31:49;21.80;99.90
23323;DHT22;11833;52.554;13.554;2023-07-16T05:34:15;21.70;99.90
23323;DHT22;11833;52.554;13.554;2023-07-16T05:36:42;21.70;99.90
23323;DHT22;11833;52.554;13.554;2023-07-16T05:39:10;21.70;99.90
23323;DHT22;11833;52.554;13.554;2023-07-16T05:41:39;21.90;99.90
23323;DHT22;11833;52.554;13.554;2023-07-16T05:44:05;21.90;99.90
23323;DHT22;11833;52.554;13.554;2023-07-16T05:46:31;21.90;99.90
23323;DHT22;11833;52.554;13.554;2023-07-16T05:48:57;22.00;99.90
23323;DHT22;11833;52.554;13.554;2023-07-16T05:51:22;22.10;99.90
23323;DHT22;11833;52.554;13.554;2023-07-16T05:53:48;22.10;99.90
23323;DHT22;11833;52.554;13.554;2023-07-16T05:56:14;22.00;99.90
23323;DHT22;11833;52.554;13.554;2023-07-16T05:58:41;22.10;99.90
23323;DHT22;11833;52.554;13.554;2023-07-16T06:01:06;22.20;99.90
23323;DHT22;11833;52.554;13.554;2023-07-16T06:03:32;22.30;99.90
23323;DHT22;11833;52.554;13.554;2023-07-16T06:05:58;22.30;99.90
23323;DHT22;11833;52.554;13.554;2023-07-16T06:08:24;22.20;99.90
23323;DHT22;11833;52.554;13.554;2023-07-16T06:10:51;22.10;99.90
23323;DHT22;11833;52.554;13.554;2023-07-16T06:13:17;22.40;99.90
23323;DHT22;11833;52.554;13.554;2023-07-16T06:15:43;22.30;99.90
23323;DHT22;11833;52.554;13.554;2023-07-16T06:18:09;22.40;99.90
23323;DHT22;11833;52.554;13.554;2023-07-16T06:20:35;22.30;99.90
23323;DHT22;11833;52.554;13.554;2023-07-16T06:23:01;22.40;99.90
23323;DHT22;11833;52.554;13.554;2023-07-16T06:25:27;22.40;99.90
23323;DHT22;11833;52.554;13.554;2023-07-16T06:27:53;22.40;99.90
23323;DHT22;11833;52.554;13.554;2023-07-16T06:30:19;22.40;99.90
23323;DHT22;11833;52.554;13.554;2023-07-16T06:32:45;22.40;99.90
23323;DHT22;11833;52.554;13.554;2023-07-16T06:35:10;22.60;99.90
23323;DHT22;11833;52.554;13.554;2023-07-16T06:37:36;22.70;99.90
23323;DHT22;11833;52.554;13.554;2023-07-16T06:40:02;22.80;99.90
23323;DHT22;11833;52.554;13.554;2023-07-16T06:42:29;22.80;99.90
23323;DHT22;11833;52.554;13.554;2023-07-16T06:44:54;22.60;99.90
23323;DHT22;11833;52.554;13.554;2023-07-16T06:47:20;22.80;99.90
23323;DHT22;11833;52.554;13.554;2023-07-16T06:49:46;22.70;99.90
23323;DHT22;11833;52.554;13.554;2023-07-16T06:52:19;22.50;99.90
23323;DHT22;11833;52.554;13.554;2023-07-16T06:54:50;22.70;99.90
23323;DHT22;11833;52.554;13.554;2023-07-16T06:57:15;23.10;99.90
23323;DHT22;11833;52.554;13.554;2023-07-16T06:59:41;23.10;99.90
23323;DHT22;11833;52.554;13.554;2023-07-16T07:02:07;23.20;99.90
23323;DHT22;11833;52.554;13.554;2023-07-16T07:04:33;23.10;99.90
23323;DHT22;11833;52.554;13.554;2023-07-16T07:06:58;23.00;99.90
23323;DHT22;11833;52.554;13.554;2023-07-16T07:09:24;23.00;99.90
23323;DHT22;11833;52.554;13.554;2023-07-16T07:11:50;22.90;99.90
23323;DHT22;11833;52.554;13.554;2023-07-16T07:14:15;23.10;99.90
23323;DHT22;11833;52.554;13.554;2023-07-16T07:16:41;23.30;99.90
23323;DHT22;11833;52.554;13.554;2023-07-16T07:19:08;23.30;99.90
23323;DHT22;11833;52.554;13.554;2023-07-16T07:21:34;23.30;99.90
23323;DHT22;11833;52.554;13.554;2023-07-16T07:24:00;23.30;99.90
23323;DHT22;11833;52.554;13.554;2023-07-16T07:26:25;23.50;99.90
23323;DHT22;11833;52.554;13.554;2023-07-16T07:28:51;23.40;99.90
23323;DHT22;11833;52.554;13.554;2023-07-16T07:31:17;23.60;99.90
23323;DHT22;11833;52.554;13.554;2023-07-16T07:33:43;23.60;99.90
23323;DHT22;11833;52.554;13.554;2023-07-16T07:36:08;23.70;99.90
23323;DHT22;11833;52.554;13.554;2023-07-16T07:38:34;24.00;99.90
23323;DHT22;11833;52.554;13.554;2023-07-16T07:41:00;24.00;99.90
23323;DHT22;11833;52.554;13.554;2023-07-16T07:43:26;24.00;99.90
23323;DHT22;11833;52.554;13.554;2023-07-16T07:45:52;24.10;99.90
23323;DHT22;11833;52.554;13.554;2023-07-16T07:48:18;24.00;99.90
23323;DHT22;11833;52.554;13.554;2023-07-16T07:50:46;24.00;99.90
23323;DHT22;11833;52.554;13.554;2023-07-16T07:53:12;23.90;99.90
23323;DHT22;11833;52.554;13.554;2023-07-16T07:55:39;23.80;99.90
23323;DHT22;11833;52.554;13.554;2023-07-16T07:58:06;23.90;99.90
23323;DHT22;11833;52.554;13.554;2023-07-16T08:00:33;24.10;99.90
23323;DHT22;11833;52.554;13.554;2023-07-16T08:02:58;24.30;99.90
23323;DHT22;11833;52.554;13.554;2023-07-16T08:05:24;24.20;99.90
23323;DHT22;11833;52.554;13.554;2023-07-16T08:07:50;24.00;99.90
23323;DHT22;11833;52.554;13.554;2023-07-16T08:10:17;23.90;99.90
23323;DHT22;11833;52.554;13.554;2023-07-16T08:12:43;24.00;99.90
23323;DHT22;11833;52.554;13.554;2023-07-16T08:15:09;23.90;99.90
23323;DHT22;11833;52.554;13.554;2023-07-16T08:17:40;23.80;99.90
23323;DHT22;11833;52.554;13.554;2023-07-16T08:20:07;23.90;99.90
23323;DHT22;11833;52.554;13.554;2023-07-16T08:22:33;24.10;99.90
23323;DHT22;11833;52.554;13.554;2023-07-16T08:24:59;24.00;99.90
23323;DHT22;11833;52.554;13.554;2023-07-16T08:27:25;24.00;99.90
23323;DHT22;11833;52.554;13.554;2023-07-16T08:29:50;24.20;99.90
23323;DHT22;11833;52.554;13.554;2023-07-16T08:32:16;24.40;99.90
23323;DHT22;11833;52.554;13.554;2023-07-16T08:34:42;24.40;99.90
23323;DHT22;11833;52.554;13.554;2023-07-16T08:37:08;24.40;99.90
23323;DHT22;11833;52.554;13.554;2023-07-16T08:39:34;24.40;99.20
23323;DHT22;11833;52.554;13.554;2023-07-16T08:42:00;24.30;98.80
23323;DHT22;11833;52.554;13.554;2023-07-16T08:44:26;24.20;98.20
23323;DHT22;11833;52.554;13.554;2023-07-16T08:46:53;24.00;99.00
23323;DHT22;11833;52.554;13.554;2023-07-16T08:49:19;24.00;98.40
23323;DHT22;11833;52.554;13.554;2023-07-16T08:51:48;24.10;98.70
23323;DHT22;11833;52.554;13.554;2023-07-16T08:54:15;24.20;98.10
23323;DHT22;11833;52.554;13.554;2023-07-16T08:56:43;24.20;97.70
23323;DHT22;11833;52.554;13.554;2023-07-16T08:59:10;24.20;97.30
23323;DHT22;11833;52.554;13.554;2023-07-16T09:01:37;24.30;96.60
23323;DHT22;11833;52.554;13.554;2023-07-16T09:04:03;24.50;97.00
23323;DHT22;11833;52.554;13.554;2023-07-16T09:06:29;24.50;94.60
23323;DHT22;11833;52.554;13.554;2023-07-16T09:08:55;24.80;92.90
23323;DHT22;11833;52.554;13.554;2023-07-16T09:11:22;24.70;92.60
23323;DHT22;11833;52.554;13.554;2023-07-16T09:13:49;24.80;92.60
23323;DHT22;11833;52.554;13.554;2023-07-16T09:16:17;24.90;91.50
23323;DHT22;11833;52.554;13.554;2023-07-16T09:18:43;25.10;90.60
23323;DHT22;11833;52.554;13.554;2023-07-16T09:21:10;25.10;87.50
23323;DHT22;11833;52.554;13.554;2023-07-16T09:23:37;24.90;86.90
23323;DHT22;11833;52.554;13.554;2023-07-16T09:26:03;24.90;88.20
23323;DHT22;11833;52.554;13.554;2023-07-16T09:28:31;25.10;88.30
23323;DHT22;11833;52.554;13.554;2023-07-16T09:31:03;25.40;87.00
23323;DHT22;11833;52.554;13.554;2023-07-16T09:33:32;25.10;85.30
23323;DHT22;11833;52.554;13.554;2023-07-16T09:35:58;25.10;85.50
23323;DHT22;11833;52.554;13.554;2023-07-16T09:38:24;25.20;83.00
23323;DHT22;11833;52.554;13.554;2023-07-16T09:40:52;25.10;80.60
23323;DHT22;11833;52.554;13.554;2023-07-16T09:43:18;25.10;79.20
23323;DHT22;11833;52.554;13.554;2023-07-16T09:45:44;25.20;78.40
23323;DHT22;11833;52.554;13.554;2023-07-16T09:48:10;25.30;79.80
23323;DHT22;11833;52.554;13.554;2023-07-16T09:50:36;25.30;80.50
23323;DHT22;11833;52.554;13.554;2023-07-16T09:53:05;25.40;81.00
23323;DHT22;11833;52.554;13.554;2023-07-16T09:55:34;25.50;80.50
23323;DHT22;11833;52.554;13.554;2023-07-16T09:58:04;25.50;76.20
23323;DHT22;11833;52.554;13.554;2023-07-16T10:00:33;25.40;73.30
23323;DHT22;11833;52.554;13.554;2023-07-16T10:03:00;25.40;73.70
23323;DHT22;11833;52.554;13.554;2023-07-16T10:05:27;25.50;74.10
23323;DHT22;11833;52.554;13.554;2023-07-16T10:08:00;25.60;71.50
23323;DHT22;11833;52.554;13.554;2023-07-16T10:10:58;25.70;71.30
23323;DHT22;11833;52.554;13.554;2023-07-16T10:13:24;25.90;71.50
23323;DHT22;11833;52.554;13.554;2023-07-16T10:15:54;26.00;70.50
23323;DHT22;11833;52.554;13.554;2023-07-16T10:18:26;25.90;71.00
23323;DHT22;11833;52.554;13.554;2023-07-16T10:21:08;25.70;71.60
23323;DHT22;11833;52.554;13.554;2023-07-16T10:23:42;25.70;72.00
23323;DHT22;11833;52.554;13.554;2023-07-16T10:26:13;25.60;72.70
23323;DHT22;11833;52.554;13.554;2023-07-16T10:28:40;25.70;72.40
23323;DHT22;11833;52.554;13.554;2023-07-16T10:31:06;25.80;70.80
23323;DHT22;11833;52.554;13.554;2023-07-16T10:33:42;26.00;69.50
23323;DHT22;11833;52.554;13.554;2023-07-16T10:36:08;26.10;67.80
23323;DHT22;11833;52.554;13.554;2023-07-16T10:38:41;26.30;67.30
23323;DHT22;11833;52.554;13.554;2023-07-16T10:41:10;26.30;66.10
23323;DHT22;11833;52.554;13.554;2023-07-16T10:43:36;26.50;66.50
23323;DHT22;11833;52.554;13.554;2023-07-16T10:46:02;26.80;66.40
23323;DHT22;11833;52.554;13.554;2023-07-16T10:48:28;26.90;66.10
23323;DHT22;11833;52.554;13.554;2023-07-16T10:50:54;26.80;65.20
23323;DHT22;11833;52.554;13.554;2023-07-16T10:53:20;27.00;65.70
23323;DHT22;11833;52.554;13.554;2023-07-16T10:55:46;27.30;65.40
23323;DHT22;11833;52.554;13.554;2023-07-16T10:58:11;27.70;63.90
23323;DHT22;11833;52.554;13.554;2023-07-16T11:00:39;27.80;60.90
23323;DHT22;11833;52.554;13.554;2023-07-16T11:03:05;27.40;61.80
23323;DHT22;11833;52.554;13.554;2023-07-16T11:05:31;27.30;62.40
23323;DHT22;11833;52.554;13.554;2023-07-16T11:07:57;27.10;61.90
23323;DHT22;11833;52.554;13.554;2023-07-16T11:10:24;27.00;63.60
23323;DHT22;11833;52.554;13.554;2023-07-16T11:12:52;26.80;65.00
23323;DHT22;11833;52.554;13.554;2023-07-16T11:15:18;26.70;66.30
23323;DHT22;11833;52.554;13.554;2023-07-16T11:17:54;26.40;64.90
23323;DHT22;11833;52.554;13.554;2023-07-16T11:20:20;26.30;66.30
23323;DHT22;11833;52.554;13.554;2023-07-16T11:22:46;26.30;67.10
23323;DHT22;11833;52.554;13.554;2023-07-16T11:25:12;26.40;67.70
23323;DHT22;11833;52.554;13.554;2023-07-16T11:27:41;26.40;68.20
23323;DHT22;11833;52.554;13.554;2023-07-16T11:30:07;26.60;67.00
23323;DHT22;11833;52.554;13.554;2023-07-16T11:32:48;26.90;66.40
23323;DHT22;11833;52.554;13.554;2023-07-16T11:35:18;27.20;65.20
23323;DHT22;11833;52.554;13.554;2023-07-16T11:37:45;27.60;63.70
23323;DHT22;11833;52.554;13.554;2023-07-16T11:40:16;28.00;63.30
23323;DHT22;11833;52.554;13.554;2023-07-16T11:42:42;28.30;61.20
23323;DHT22;11833;52.554;13.554;2023-07-16T11:45:23;28.40;59.70
23323;DHT22;11833;52.554;13.554;2023-07-16T11:47:53;28.60;60.30
23323;DHT22;11833;52.554;13.554;2023-07-16T11:50:19;28.60;58.80
23323;DHT22;11833;52.554;13.554;2023-07-16T11:52:55;28.60;58.90
23323;DHT22;11833;52.554;13.554;2023-07-16T11:55:24;28.70;59.00
23323;DHT22;11833;52.554;13.554;2023-07-16T11:57:50;28.80;58.70
23323;DHT22;11833;52.554;13.554;2023-07-16T12:00:16;28.90;57.80
23323;DHT22;11833;52.554;13.554;2023-07-16T12:02:43;28.60;58.20
23323;DHT22;11833;52.554;13.554;2023-07-16T12:05:08;28.00;58.90
23323;DHT22;11833;52.554;13.554;2023-07-16T12:07:38;28.00;59.80
23323;DHT22;11833;52.554;13.554;2023-07-16T12:10:05;28.20;59.50
23323;DHT22;11833;52.554;13.554;2023-07-16T12:12:32;28.60;58.40
23323;DHT22;11833;52.554;13.554;2023-07-16T12:15:01;28.90;55.00
23323;DHT22;11833;52.554;13.554;2023-07-16T12:17:27;29.00;54.80
23323;DHT22;11833;52.554;13.554;2023-07-16T12:19:53;29.20;52.50
23323;DHT22;11833;52.554;13.554;2023-07-16T12:22:19;29.30;49.60
23323;DHT22;11833;52.554;13.554;2023-07-16T12:24:46;29.30;49.50
23323;DHT22;11833;52.554;13.554;2023-07-16T12:27:13;29.30;48.70
23323;DHT22;11833;52.554;13.554;2023-07-16T12:29:39;29.00;48.00
23323;DHT22;11833;52.554;13.554;2023-07-16T12:32:06;28.70;49.00
23323;DHT22;11833;52.554;13.554;2023-07-16T12:34:32;28.80;49.40
23323;DHT22;11833;52.554;13.554;2023-07-16T12:36:57;29.20;47.10
23323;DHT22;11833;52.554;13.554;2023-07-16T12:39:23;29.10;47.10
23323;DHT22;11833;52.554;13.554;2023-07-16T12:41:49;28.90;46.60
23323;DHT22;11833;52.554;13.554;2023-07-16T12:44:15;28.50;46.30
23323;DHT22;11833;52.554;13.554;2023-07-16T12:46:41;28.20;46.80
23323;DHT22;11833;52.554;13.554;2023-07-16T12:49:06;28.10;46.40
23323;DHT22;11833;52.554;13.554;2023-07-16T12:51:32;28.10;47.40
23323;DHT22;11833;52.554;13.554;2023-07-16T12:53:58;28.50;46.00
23323;DHT22;11833;52.554;13.554;2023-07-16T12:56:26;28.90;44.20
23323;DHT22;11833;52.554;13.554;2023-07-16T12:58:52;28.80;45.00
23323;DHT22;11833;52.554;13.554;2023-07-16T13:01:18;28.80;44.60
23323;DHT22;11833;52.554;13.554;2023-07-16T13:03:43;29.20;44.80
23323;DHT22;11833;52.554;13.554;2023-07-16T13:06:09;29.20;44.70
23323;DHT22;11833;52.554;13.554;2023-07-16T13:08:35;28.90;45.50
23323;DHT22;11833;52.554;13.554;2023-07-16T13:11:01;28.80;44.30
23323;DHT22;11833;52.554;13.554;2023-07-16T13:13:28;28.80;44.60
23323;DHT22;11833;52.554;13.554;2023-07-16T13:15:54;28.80;43.50
23323;DHT22;11833;52.554;13.554;2023-07-16T13:18:20;28.90;43.90
23323;DHT22;11833;52.554;13.554;2023-07-16T13:20:46;29.40;43.60
23323;DHT22;11833;52.554;13.554;2023-07-16T13:23:12;29.40;43.50
23323;DHT22;11833;52.554;13.554;2023-07-16T13:25:38;29.00;43.50
23323;DHT22;11833;52.554;13.554;2023-07-16T13:28:07;29.20;43.40
23323;DHT22;11833;52.554;13.554;2023-07-16T13:30:33;29.70;42.70
23323;DHT22;11833;52.554;13.554;2023-07-16T13:32:59;29.50;43.10
23323;DHT22;11833;52.554;13.554;2023-07-16T13:35:26;29.30;43.70
23323;DHT22;11833;52.554;13.554;2023-07-16T13:37:52;29.60;42.90
23323;DHT22;11833;52.554;13.554;2023-07-16T13:40:18;29.70;42.70
23323;DHT22;11833;52.554;13.554;2023-07-16T13:42:46;29.60;43.20
23323;DHT22;11833;52.554;13.554;2023-07-16T13:45:13;30.10;42.90
23323;DHT22;11833;52.554;13.554;2023-07-16T13:47:39;30.60;42.60
23323;DHT22;11833;52.554;13.554;2023-07-16T13:50:05;31.20;41.60
23323;DHT22;11833;52.554;13.554;2023-07-16T13:52:31;31.10;40.80
23323;DHT22;11833;52.554;13.554;2023-07-16T13:54:56;30.30;41.90
23323;DHT22;11833;52.554;13.554;2023-07-16T13:57:22;29.90;43.10
23323;DHT22;11833;52.554;13.554;2023-07-16T13:59:48;29.50;43.50
23323;DHT22;11833;52.554;13.554;2023-07-16T14:02:14;29.70;41.60
23323;DHT22;11833;52.554;13.554;2023-07-16T14:04:39;29.20;42.70
23323;DHT22;11833;52.554;13.554;2023-07-16T14:07:05;28.90;44.00
23323;DHT22;11833;52.554;13.554;2023-07-16T14:09:31;28.80;43.90
23323;DHT22;11833;52.554;13.554;2023-07-16T14:11:56;29.30;44.40
23323;DHT22;11833;52.554;13.554;2023-07-16T14:14:23;30.10;43.20
23323;DHT22;11833;52.554;13.554;2023-07-16T14:16:49;30.50;41.80
23323;DHT22;11833;52.554;13.554;2023-07-16T14:19:15;30.30;40.60
23323;DHT22;11833;52.554;13.554;2023-07-16T14:21:40;29.90;41.20
23323;DHT22;11833;52.554;13.554;2023-07-16T14:24:06;29.80;41.00
23323;DHT22;11833;52.554;13.554;2023-07-16T14:26:33;29.90;40.40
23323;DHT22;11833;52.554;13.554;2023-07-16T14:28:59;30.30;39.60
23323;DHT22;11833;52.554;13.554;2023-07-16T14:31:25;31.10;39.50
23323;DHT22;11833;52.554;13.554;2023-07-16T14:33:51;30.90;38.70
23323;DHT22;11833;52.554;13.554;2023-07-16T14:36:17;30.90;38.80
23323;DHT22;11833;52.554;13.554;2023-07-16T14:38:43;31.00;39.40
23323;DHT22;11833;52.554;13.554;2023-07-16T14:41:08;31.40;38.20
23323;DHT22;11833;52.554;13.554;2023-07-16T14:43:35;31.60;38.30
23323;DHT22;11833;52.554;13.554;2023-07-16T14:46:01;31.70;37.20
23323;DHT22;11833;52.554;13.554;2023-07-16T14:48:28;31.80;36.60
23323;DHT22;11833;52.554;13.554;2023-07-16T14:50:54;31.50;37.00
23323;DHT22;11833;52.554;13.554;2023-07-16T14:53:20;31.30;37.50
23323;DHT22;11833;52.554;13.554;2023-07-16T14:55:49;31.10;38.50
23323;DHT22;11833;52.554;13.554;2023-07-16T14:58:18;31.40;38.20
23323;DHT22;11833;52.554;13.554;2023-07-16T15:00:45;31.70;36.70
23323;DHT22;11833;52.554;13.554;2023-07-16T15:03:11;31.70;36.80
23323;DHT22;11833;52.554;13.554;2023-07-16T15:05:37;31.30;36.70
23323;DHT22;11833;52.554;13.554;2023-07-16T15:08:04;31.20;37.60
23323;DHT22;11833;52.554;13.554;2023-07-16T15:10:31;31.40;35.90
23323;DHT22;11833;52.554;13.554;2023-07-16T15:12:57;31.50;35.20
23323;DHT22;11833;52.554;13.554;2023-07-16T15:15:23;31.80;35.50